sensor_id;sensor_type;location;lat;lon;timestamp;P1;durP1;ratioP1;P2;durP2;ratioP2
43823;SDS011;29470;53.550;9.926;2023-04-25T00:01:41;9.10;;;4.68;;
43823;SDS011;29470;53.550;9.926;2023-04-25T00:06:44;13.85;;;4.38;;
43823;SDS011;29470;53.550;9.926;2023-04-25T00:11:47;13.95;;;4.10;;
43823;SDS011;29470;53.550;9.926;2023-04-25T00:16:52;12.40;;;3.70;;
43823;SDS011;29470;53.550;9.926;2023-04-25T00:21:55;14.40;;;4.00;;
43823;SDS011;29470;53.550;9.926;2023-04-25T00:26:58;15.20;;;4.38;;
43823;SDS011;29470;53.550;9.926;2023-04-25T00:32:02;10.68;;;3.42;;
43823;SDS011;29470;53.550;9.926;2023-04-25T00:37:06;13.02;;;3.33;;
43823;SDS011;29470;53.550;9.926;2023-04-25T00:42:09;17.80;;;3.30;;
43823;SDS011;29470;53.550;9.926;2023-04-25T00:47:13;18.55;;;3.70;;
43823;SDS011;29470;53.550;9.926;2023-04-25T00:52:17;15.73;;;3.30;;
43823;SDS011;29470;53.550;9.926;2023-04-25T00:57:20;21.90;;;4.75;;
43823;SDS011;29470;53.550;9.926;2023-04-25T01:02:24;17.92;;;3.97;;
43823;SDS011;29470;53.550;9.926;2023-04-25T01:07:28;22.88;;;4.00;;
43823;SDS011;29470;53.550;9.926;2023-04-25T01:12:31;13.88;;;3.72;;
43823;SDS011;29470;53.550;9.926;2023-04-25T01:17:36;15.57;;;3.58;;
43823;SDS011;29470;53.550;9.926;2023-04-25T01:22:42;18.13;;;4.00;;
43823;SDS011;29470;53.550;9.926;2023-04-25T01:27:45;21.48;;;4.35;;
43823;SDS011;29470;53.550;9.926;2023-04-25T01:32:49;16.70;;;3.83;;
43823;SDS011;29470;53.550;9.926;2023-04-25T01:37:54;15.85;;;3.63;;
43823;SDS011;29470;53.550;9.926;2023-04-25T01:42:57;18.17;;;3.60;;
43823;SDS011;29470;53.550;9.926;2023-04-25T01:48:00;16.13;;;3.92;;
43823;SDS011;29470;53.550;9.926;2023-04-25T01:53:04;22.77;;;4.22;;
43823;SDS011;29470;53.550;9.926;2023-04-25T01:58:07;20.45;;;4.10;;
43823;SDS011;29470;53.550;9.926;2023-04-25T02:03:32;19.48;;;4.70;;
43823;SDS011;29470;53.550;9.926;2023-04-25T02:08:38;18.10;;;4.20;;
43823;SDS011;29470;53.550;9.926;2023-04-25T02:13:41;24.23;;;4.55;;
43823;SDS011;29470;53.550;9.926;2023-04-25T02:18:58;16.80;;;3.90;;
43823;SDS011;29470;53.550;9.926;2023-04-25T02:24:03;20.45;;;3.75;;
43823;SDS011;29470;53.550;9.926;2023-04-25T02:29:07;20.13;;;4.28;;
43823;SDS011;29470;53.550;9.926;2023-04-25T02:34:11;18.48;;;4.50;;
43823;SDS011;29470;53.550;9.926;2023-04-25T02:39:15;22.02;;;4.40;;
43823;SDS011;29470;53.550;9.926;2023-04-25T02:44:18;16.00;;;4.80;;
43823;SDS011;29470;53.550;9.926;2023-04-25T02:49:21;17.05;;;4.00;;
43823;SDS011;29470;53.550;9.926;2023-04-25T02:54:27;19.30;;;3.80;;
43823;SDS011;29470;53.550;9.926;2023-04-25T02:59:31;20.83;;;4.10;;
43823;SDS011;29470;53.550;9.926;2023-04-25T03:04:34;19.48;;;3.40;;
43823;SDS011;29470;53.550;9.926;2023-04-25T03:09:38;13.65;;;3.38;;
43823;SDS011;29470;53.550;9.926;2023-04-25T03:14:41;23.33;;;4.32;;
43823;SDS011;29470;53.550;9.926;2023-04-25T03:19:44;21.10;;;3.30;;
43823;SDS011;29470;53.550;9.926;2023-04-25T03:24:49;20.25;;;3.65;;
43823;SDS011;29470;53.550;9.926;2023-04-25T03:29:53;9.80;;;2.88;;
43823;SDS011;29470;53.550;9.926;2023-04-25T03:34:56;22.05;;;3.35;;
43823;SDS011;29470;53.550;9.926;2023-04-25T03:40:02;14.38;;;3.25;;
43823;SDS011;29470;53.550;9.926;2023-04-25T03:45:26;14.38;;;2.92;;
43823;SDS011;29470;53.550;9.926;2023-04-25T03:50:29;14.80;;;3.22;;
43823;SDS011;29470;53.550;9.926;2023-04-25T03:55:33;16.10;;;3.03;;
43823;SDS011;29470;53.550;9.926;2023-04-25T04:00:37;16.25;;;2.83;;
43823;SDS011;29470;53.550;9.926;2023-04-25T04:05:40;14.40;;;2.97;;
43823;SDS011;29470;53.550;9.926;2023-04-25T04:10:45;15.68;;;3.67;;
43823;SDS011;29470;53.550;9.926;2023-04-25T04:15:48;12.63;;;2.63;;
43823;SDS011;29470;53.550;9.926;2023-04-25T04:20:52;14.48;;;3.05;;
43823;SDS011;29470;53.550;9.926;2023-04-25T04:25:56;12.13;;;2.97;;
43823;SDS011;29470;53.550;9.926;2023-04-25T04:31:34;15.77;;;2.85;;
43823;SDS011;29470;53.550;9.926;2023-04-25T04:36:37;15.88;;;2.60;;
43823;SDS011;29470;53.550;9.926;2023-04-25T04:41:42;16.95;;;2.90;;
43823;SDS011;29470;53.550;9.926;2023-04-25T04:47:04;15.52;;;3.15;;
43823;SDS011;29470;53.550;9.926;2023-04-25T04:52:42;16.30;;;4.63;;
43823;SDS011;29470;53.550;9.926;2023-04-25T04:58:05;13.65;;;3.00;;
43823;SDS011;29470;53.550;9.926;2023-04-25T05:03:32;10.48;;;2.53;;
43823;SDS011;29470;53.550;9.926;2023-04-25T05:08:45;18.85;;;2.92;;
43823;SDS011;29470;53.550;9.926;2023-04-25T05:14:19;11.80;;;2.58;;
43823;SDS011;29470;53.550;9.926;2023-04-25T05:19:38;13.48;;;2.85;;
43823;SDS011;29470;53.550;9.926;2023-04-25T05:24:53;16.70;;;3.40;;
43823;SDS011;29470;53.550;9.926;2023-04-25T05:30:16;12.85;;;3.17;;
43823;SDS011;29470;53.550;9.926;2023-04-25T05:35:42;12.32;;;2.75;;
43823;SDS011;29470;53.550;9.926;2023-04-25T05:40:45;12.35;;;2.38;;
43823;SDS011;29470;53.550;9.926;2023-04-25T05:46:07;15.10;;;3.33;;
43823;SDS011;29470;53.550;9.926;2023-04-25T05:51:28;12.55;;;3.20;;
43823;SDS011;29470;53.550;9.926;2023-04-25T05:57:06;13.75;;;3.20;;
43823;SDS011;29470;53.550;9.926;2023-04-25T06:02:10;7.15;;;2.33;;
43823;SDS011;29470;53.550;9.926;2023-04-25T06:07:14;11.88;;;2.53;;
43823;SDS011;29470;53.550;9.926;2023-04-25T06:12:17;8.13;;;2.30;;
43823;SDS011;29470;53.550;9.926;2023-04-25T06:17:23;12.60;;;2.50;;
43823;SDS011;29470;53.550;9.926;2023-04-25T06:22:26;12.23;;;2.97;;
43823;SDS011;29470;53.550;9.926;2023-04-25T06:27:32;13.85;;;2.47;;
43823;SDS011;29470;53.550;9.926;2023-04-25T06:32:37;10.95;;;2.50;;
43823;SDS011;29470;53.550;9.926;2023-04-25T06:37:40;7.82;;;2.38;;
43823;SDS011;29470;53.550;9.926;2023-04-25T06:42:43;15.55;;;2.42;;
43823;SDS011;29470;53.550;9.926;2023-04-25T06:48:12;13.15;;;2.80;;
43823;SDS011;29470;53.550;9.926;2023-04-25T06:53:14;12.60;;;3.08;;
43823;SDS011;29470;53.550;9.926;2023-04-25T06:58:21;8.55;;;2.33;;
43823;SDS011;29470;53.550;9.926;2023-04-25T07:03:35;10.65;;;2.45;;
43823;SDS011;29470;53.550;9.926;2023-04-25T07:08:43;9.07;;;2.20;;
43823;SDS011;29470;53.550;9.926;2023-04-25T07:13:46;13.65;;;2.58;;
43823;SDS011;29470;53.550;9.926;2023-04-25T07:18:50;13.10;;;2.22;;
43823;SDS011;29470;53.550;9.926;2023-04-25T07:23:53;15.75;;;4.55;;
43823;SDS011;29470;53.550;9.926;2023-04-25T07:29:01;10.52;;;4.70;;
43823;SDS011;29470;53.550;9.926;2023-04-25T07:34:06;17.77;;;5.78;;
43823;SDS011;29470;53.550;9.926;2023-04-25T07:39:11;5.70;;;1.77;;
43823;SDS011;29470;53.550;9.926;2023-04-25T07:44:14;10.30;;;2.30;;
43823;SDS011;29470;53.550;9.926;2023-04-25T07:49:19;10.77;;;2.97;;
43823;SDS011;29470;53.550;9.926;2023-04-25T07:54:23;9.43;;;2.25;;
43823;SDS011;29470;53.550;9.926;2023-04-25T07:59:33;11.05;;;3.25;;
43823;SDS011;29470;53.550;9.926;2023-04-25T08:04:38;6.13;;;1.75;;
43823;SDS011;29470;53.550;9.926;2023-04-25T08:09:43;6.03;;;1.90;;
43823;SDS011;29470;53.550;9.926;2023-04-25T08:14:56;5.65;;;1.70;;
43823;SDS011;29470;53.550;9.926;2023-04-25T08:20:04;7.70;;;1.70;;
43823;SDS011;29470;53.550;9.926;2023-04-25T08:25:08;7.47;;;1.80;;
43823;SDS011;29470;53.550;9.926;2023-04-25T08:30:12;7.65;;;1.92;;
43823;SDS011;29470;53.550;9.926;2023-04-25T08:35:18;8.35;;;1.90;;
43823;SDS011;29470;53.550;9.926;2023-04-25T08:40:23;5.35;;;1.30;;
43823;SDS011;29470;53.550;9.926;2023-04-25T08:45:36;9.27;;;1.75;;
43823;SDS011;29470;53.550;9.926;2023-04-25T08:50:44;8.35;;;1.95;;
43823;SDS011;29470;53.550;9.926;2023-04-25T08:55:52;7.30;;;1.88;;
43823;SDS011;29470;53.550;9.926;2023-04-25T09:00:57;11.68;;;2.25;;
43823;SDS011;29470;53.550;9.926;2023-04-25T09:06:06;5.97;;;1.40;;
43823;SDS011;29470;53.550;9.926;2023-04-25T09:11:11;9.18;;;2.38;;
43823;SDS011;29470;53.550;9.926;2023-04-25T09:16:16;6.25;;;1.15;;
43823;SDS011;29470;53.550;9.926;2023-04-25T09:21:43;7.82;;;1.35;;
43823;SDS011;29470;53.550;9.926;2023-04-25T09:26:47;8.63;;;1.52;;
43823;SDS011;29470;53.550;9.926;2023-04-25T09:31:50;6.20;;;1.40;;
43823;SDS011;29470;53.550;9.926;2023-04-25T09:36:55;9.88;;;1.50;;
43823;SDS011;29470;53.550;9.926;2023-04-25T09:42:21;9.13;;;1.63;;
43823;SDS011;29470;53.550;9.926;2023-04-25T09:47:26;8.20;;;1.05;;
43823;SDS011;29470;53.550;9.926;2023-04-25T09:52:31;4.60;;;1.50;;
43823;SDS011;29470;53.550;9.926;2023-04-25T09:57:45;6.03;;;1.38;;
43823;SDS011;29470;53.550;9.926;2023-04-25T10:02:55;7.22;;;1.48;;
43823;SDS011;29470;53.550;9.926;2023-04-25T10:08:21;6.80;;;1.63;;
43823;SDS011;29470;53.550;9.926;2023-04-25T10:13:26;8.30;;;1.45;;
43823;SDS011;29470;53.550;9.926;2023-04-25T10:18:31;4.35;;;1.65;;
43823;SDS011;29470;53.550;9.926;2023-04-25T10:23:36;3.95;;;0.95;;
43823;SDS011;29470;53.550;9.926;2023-04-25T10:28:55;5.95;;;1.33;;
43823;SDS011;29470;53.550;9.926;2023-04-25T10:34:01;7.40;;;1.30;;
43823;SDS011;29470;53.550;9.926;2023-04-25T10:39:05;6.18;;;1.17;;
43823;SDS011;29470;53.550;9.926;2023-04-25T10:44:10;6.50;;;1.30;;
43823;SDS011;29470;53.550;9.926;2023-04-25T10:49:28;15.25;;;2.15;;
43823;SDS011;29470;53.550;9.926;2023-04-25T10:54:34;5.00;;;1.58;;
43823;SDS011;29470;53.550;9.926;2023-04-25T10:59:37;7.63;;;1.30;;
43823;SDS011;29470;53.550;9.926;2023-04-25T11:04:42;7.20;;;1.27;;
43823;SDS011;29470;53.550;9.926;2023-04-25T11:09:46;9.85;;;1.70;;
43823;SDS011;29470;53.550;9.926;2023-04-25T11:14:49;4.22;;;1.60;;
43823;SDS011;29470;53.550;9.926;2023-04-25T11:19:53;9.73;;;1.65;;
43823;SDS011;29470;53.550;9.926;2023-04-25T11:25:00;8.02;;;1.17;;
43823;SDS011;29470;53.550;9.926;2023-04-25T11:30:10;6.15;;;1.55;;
43823;SDS011;29470;53.550;9.926;2023-04-25T11:35:14;4.05;;;0.90;;
43823;SDS011;29470;53.550;9.926;2023-04-25T11:40:19;4.60;;;0.90;;
43823;SDS011;29470;53.550;9.926;2023-04-25T11:45:22;9.70;;;1.33;;
43823;SDS011;29470;53.550;9.926;2023-04-25T11:50:26;5.22;;;1.20;;
43823;SDS011;29470;53.550;9.926;2023-04-25T11:55:32;6.22;;;1.90;;
43823;SDS011;29470;53.550;9.926;2023-04-25T12:00:34;6.07;;;1.30;;
43823;SDS011;29470;53.550;9.926;2023-04-25T12:05:37;3.10;;;1.25;;
43823;SDS011;29470;53.550;9.926;2023-04-25T12:10:43;6.60;;;1.42;;
43823;SDS011;29470;53.550;9.926;2023-04-25T12:15:48;6.10;;;1.27;;
43823;SDS011;29470;53.550;9.926;2023-04-25T12:20:52;7.75;;;1.48;;
43823;SDS011;29470;53.550;9.926;2023-04-25T12:25:56;3.58;;;0.80;;
43823;SDS011;29470;53.550;9.926;2023-04-25T12:31:00;6.88;;;0.98;;
43823;SDS011;29470;53.550;9.926;2023-04-25T12:36:05;6.57;;;1.00;;
43823;SDS011;29470;53.550;9.926;2023-04-25T12:41:11;4.53;;;1.05;;
43823;SDS011;29470;53.550;9.926;2023-04-25T12:46:14;4.70;;;0.93;;
43823;SDS011;29470;53.550;9.926;2023-04-25T12:51:18;5.45;;;1.20;;
43823;SDS011;29470;53.550;9.926;2023-04-25T12:56:22;7.28;;;1.60;;
43823;SDS011;29470;53.550;9.926;2023-04-25T13:01:26;8.88;;;2.40;;
43823;SDS011;29470;53.550;9.926;2023-04-25T13:06:32;7.03;;;1.40;;
43823;SDS011;29470;53.550;9.926;2023-04-25T13:11:36;4.38;;;1.20;;
43823;SDS011;29470;53.550;9.926;2023-04-25T13:16:39;3.88;;;1.45;;
43823;SDS011;29470;53.550;9.926;2023-04-25T13:21:42;2.92;;;1.08;;
43823;SDS011;29470;53.550;9.926;2023-04-25T13:26:46;5.07;;;1.55;;
43823;SDS011;29470;53.550;9.926;2023-04-25T13:31:49;5.47;;;1.20;;
43823;SDS011;29470;53.550;9.926;2023-04-25T13:36:52;7.25;;;2.03;;
43823;SDS011;29470;53.550;9.926;2023-04-25T13:41:57;8.88;;;1.40;;
43823;SDS011;29470;53.550;9.926;2023-04-25T13:47:01;6.30;;;1.60;;
43823;SDS011;29470;53.550;9.926;2023-04-25T13:52:04;6.18;;;1.40;;
43823;SDS011;29470;53.550;9.926;2023-04-25T13:57:08;4.13;;;1.30;;
43823;SDS011;29470;53.550;9.926;2023-04-25T14:02:12;6.85;;;1.55;;
43823;SDS011;29470;53.550;9.926;2023-04-25T14:07:15;7.07;;;1.65;;
43823;SDS011;29470;53.550;9.926;2023-04-25T14:12:20;7.68;;;1.80;;
43823;SDS011;29470;53.550;9.926;2023-04-25T14:17:23;7.88;;;1.98;;
43823;SDS011;29470;53.550;9.926;2023-04-25T14:22:26;9.60;;;1.80;;
43823;SDS011;29470;53.550;9.926;2023-04-25T14:27:30;9.52;;;1.83;;
43823;SDS011;29470;53.550;9.926;2023-04-25T14:32:33;3.80;;;1.23;;
43823;SDS011;29470;53.550;9.926;2023-04-25T14:37:36;5.20;;;1.67;;
43823;SDS011;29470;53.550;9.926;2023-04-25T14:42:40;10.15;;;1.70;;
43823;SDS011;29470;53.550;9.926;2023-04-25T14:47:43;9.98;;;1.85;;
43823;SDS011;29470;53.550;9.926;2023-04-25T14:52:47;6.47;;;1.60;;
43823;SDS011;29470;53.550;9.926;2023-04-25T14:57:51;7.20;;;1.20;;
43823;SDS011;29470;53.550;9.926;2023-04-25T15:02:57;6.15;;;1.25;;
43823;SDS011;29470;53.550;9.926;2023-04-25T15:08:01;8.50;;;1.50;;
43823;SDS011;29470;53.550;9.926;2023-04-25T15:13:05;8.07;;;1.38;;
43823;SDS011;29470;53.550;9.926;2023-04-25T15:18:08;6.07;;;2.05;;
43823;SDS011;29470;53.550;9.926;2023-04-25T15:23:12;6.90;;;1.50;;
43823;SDS011;29470;53.550;9.926;2023-04-25T15:28:17;12.73;;;2.08;;
43823;SDS011;29470;53.550;9.926;2023-04-25T15:33:20;14.82;;;1.95;;
43823;SDS011;29470;53.550;9.926;2023-04-25T15:38:22;6.80;;;1.50;;
43823;SDS011;29470;53.550;9.926;2023-04-25T15:43:27;8.07;;;1.73;;
43823;SDS011;29470;53.550;9.926;2023-04-25T15:48:30;3.13;;;1.00;;
43823;SDS011;29470;53.550;9.926;2023-04-25T15:53:33;6.25;;;1.10;;
43823;SDS011;29470;53.550;9.926;2023-04-25T15:58:38;7.65;;;1.40;;
43823;SDS011;29470;53.550;9.926;2023-04-25T16:03:41;5.88;;;1.27;;
43823;SDS011;29470;53.550;9.926;2023-04-25T16:08:44;6.13;;;1.15;;
43823;SDS011;29470;53.550;9.926;2023-04-25T16:13:48;6.57;;;1.15;;
43823;SDS011;29470;53.550;9.926;2023-04-25T16:18:52;5.93;;;1.38;;
43823;SDS011;29470;53.550;9.926;2023-04-25T16:23:54;5.30;;;0.85;;
43823;SDS011;29470;53.550;9.926;2023-04-25T16:28:59;4.30;;;1.05;;
43823;SDS011;29470;53.550;9.926;2023-04-25T16:34:04;5.43;;;1.20;;
43823;SDS011;29470;53.550;9.926;2023-04-25T16:39:07;4.35;;;1.20;;
43823;SDS011;29470;53.550;9.926;2023-04-25T16:44:11;5.85;;;1.10;;
43823;SDS011;29470;53.550;9.926;2023-04-25T16:49:14;5.57;;;1.05;;
43823;SDS011;29470;53.550;9.926;2023-04-25T16:54:17;4.07;;;1.20;;
43823;SDS011;29470;53.550;9.926;2023-04-25T16:59:21;6.97;;;1.58;;
43823;SDS011;29470;53.550;9.926;2023-04-25T17:04:24;7.05;;;1.15;;
43823;SDS011;29470;53.550;9.926;2023-04-25T17:09:27;7.80;;;1.35;;
43823;SDS011;29470;53.550;9.926;2023-04-25T17:14:32;11.20;;;1.20;;
43823;SDS011;29470;53.550;9.926;2023-04-25T17:19:38;3.70;;;0.73;;
43823;SDS011;29470;53.550;9.926;2023-04-25T17:24:42;8.45;;;1.08;;
43823;SDS011;29470;53.550;9.926;2023-04-25T17:29:46;3.60;;;1.23;;
43823;SDS011;29470;53.550;9.926;2023-04-25T17:34:49;5.90;;;1.40;;
43823;SDS011;29470;53.550;9.926;2023-04-25T17:39:52;8.68;;;1.45;;
43823;SDS011;29470;53.550;9.926;2023-04-25T17:44:57;4.93;;;1.00;;
43823;SDS011;29470;53.550;9.926;2023-04-25T17:50:00;7.03;;;2.05;;
43823;SDS011;29470;53.550;9.926;2023-04-25T17:55:03;14.82;;;2.08;;
43823;SDS011;29470;53.550;9.926;2023-04-25T18:00:09;5.53;;;1.30;;
43823;SDS011;29470;53.550;9.926;2023-04-25T18:05:13;9.18;;;2.00;;
43823;SDS011;29470;53.550;9.926;2023-04-25T18:10:17;11.38;;;1.75;;
43823;SDS011;29470;53.550;9.926;2023-04-25T18:15:21;5.13;;;1.33;;
43823;SDS011;29470;53.550;9.926;2023-04-25T18:20:25;4.55;;;1.27;;
43823;SDS011;29470;53.550;9.926;2023-04-25T18:25:29;5.70;;;1.27;;
43823;SDS011;29470;53.550;9.926;2023-04-25T18:30:35;6.65;;;1.80;;
43823;SDS011;29470;53.550;9.926;2023-04-25T18:35:39;11.07;;;1.73;;
43823;SDS011;29470;53.550;9.926;2023-04-25T18:40:58;6.75;;;1.70;;
43823;SDS011;29470;53.550;9.926;2023-04-25T18:46:22;8.88;;;1.83;;
43823;SDS011;29470;53.550;9.926;2023-04-25T18:51:26;7.97;;;1.35;;
43823;SDS011;29470;53.550;9.926;2023-04-25T18:56:31;6.28;;;1.55;;
43823;SDS011;29470;53.550;9.926;2023-04-25T19:01:35;4.85;;;1.73;;
43823;SDS011;29470;53.550;9.926;2023-04-25T19:06:38;7.93;;;1.65;;
43823;SDS011;29470;53.550;9.926;2023-04-25T19:11:41;7.72;;;1.83;;
43823;SDS011;29470;53.550;9.926;2023-04-25T19:16:45;10.65;;;1.73;;
43823;SDS011;29470;53.550;9.926;2023-04-25T19:21:48;8.18;;;1.65;;
43823;SDS011;29470;53.550;9.926;2023-04-25T19:26:52;9.23;;;1.42;;
43823;SDS011;29470;53.550;9.926;2023-04-25T19:31:56;6.30;;;1.27;;
43823;SDS011;29470;53.550;9.926;2023-04-25T19:37:00;5.85;;;2.17;;
43823;SDS011;29470;53.550;9.926;2023-04-25T19:42:05;11.13;;;1.70;;
43823;SDS011;29470;53.550;9.926;2023-04-25T19:47:09;5.53;;;1.15;;
43823;SDS011;29470;53.550;9.926;2023-04-25T19:52:12;5.15;;;1.80;;
43823;SDS011;29470;53.550;9.926;2023-04-25T19:57:16;6.50;;;1.67;;
43823;SDS011;29470;53.550;9.926;2023-04-25T20:02:20;6.30;;;1.75;;
43823;SDS011;29470;53.550;9.926;2023-04-25T20:07:23;8.18;;;1.90;;
43823;SDS011;29470;53.550;9.926;2023-04-25T20:12:26;7.03;;;1.67;;
43823;SDS011;29470;53.550;9.926;2023-04-25T20:17:31;5.88;;;2.13;;
43823;SDS011;29470;53.550;9.926;2023-04-25T20:22:34;5.68;;;1.27;;
43823;SDS011;29470;53.550;9.926;2023-04-25T20:27:39;7.90;;;1.40;;
43823;SDS011;29470;53.550;9.926;2023-04-25T20:32:43;7.00;;;1.45;;
43823;SDS011;29470;53.550;9.926;2023-04-25T20:37:45;8.88;;;2.10;;
43823;SDS011;29470;53.550;9.926;2023-04-25T20:42:48;7.22;;;1.48;;
43823;SDS011;29470;53.550;9.926;2023-04-25T20:47:53;4.93;;;1.58;;
43823;SDS011;29470;53.550;9.926;2023-04-25T20:52:57;10.25;;;1.95;;
43823;SDS011;29470;53.550;9.926;2023-04-25T20:57:59;5.40;;;1.42;;
43823;SDS011;29470;53.550;9.926;2023-04-25T21:03:04;5.80;;;1.63;;
43823;SDS011;29470;53.550;9.926;2023-04-25T21:08:08;5.00;;;1.63;;
43823;SDS011;29470;53.550;9.926;2023-04-25T21:13:11;5.43;;;1.02;;
43823;SDS011;29470;53.550;9.926;2023-04-25T21:18:18;8.43;;;1.20;;
43823;SDS011;29470;53.550;9.926;2023-04-25T21:23:21;5.75;;;1.20;;
43823;SDS011;29470;53.550;9.926;2023-04-25T21:28:24;5.20;;;1.33;;
43823;SDS011;29470;53.550;9.926;2023-04-25T21:33:28;7.03;;;2.13;;
43823;SDS011;29470;53.550;9.926;2023-04-25T21:38:32;10.38;;;1.80;;
43823;SDS011;29470;53.550;9.926;2023-04-25T21:43:35;6.63;;;1.50;;
43823;SDS011;29470;53.550;9.926;2023-04-25T21:48:39;10.45;;;1.95;;
43823;SDS011;29470;53.550;9.926;2023-04-25T21:53:44;7.72;;;1.85;;
43823;SDS011;29470;53.550;9.926;2023-04-25T21:58:47;4.47;;;1.40;;
43823;SDS011;29470;53.550;9.926;2023-04-25T22:03:52;5.63;;;1.02;;
43823;SDS011;29470;53.550;9.926;2023-04-25T22:08:55;6.63;;;1.02;;
43823;SDS011;29470;53.550;9.926;2023-04-25T22:13:58;3.28;;;0.90;;
43823;SDS011;29470;53.550;9.926;2023-04-25T22:19:03;8.27;;;1.50;;
43823;SDS011;29470;53.550;9.926;2023-04-25T22:24:08;6.47;;;1.23;;
43823;SDS011;29470;53.550;9.926;2023-04-25T22:29:11;5.28;;;1.10;;
43823;SDS011;29470;53.550;9.926;2023-04-25T22:34:15;5.95;;;1.20;;
43823;SDS011;29470;53.550;9.926;2023-04-25T22:39:18;7.85;;;1.98;;
43823;SDS011;29470;53.550;9.926;2023-04-25T22:44:21;6.55;;;1.20;;
43823;SDS011;29470;53.550;9.926;2023-04-25T22:49:25;9.35;;;1.73;;
43823;SDS011;29470;53.550;9.926;2023-04-25T22:54:28;7.07;;;2.20;;
43823;SDS011;29470;53.550;9.926;2023-04-25T22:59:31;8.45;;;1.70;;
43823;SDS011;29470;53.550;9.926;2023-04-25T23:04:37;8.80;;;3.08;;
43823;SDS011;29470;53.550;9.926;2023-04-25T23:09:40;11.48;;;1.77;;
43823;SDS011;29470;53.550;9.926;2023-04-25T23:14:47;7.60;;;1.65;;
43823;SDS011;29470;53.550;9.926;2023-04-25T23:19:54;8.55;;;1.88;;
43823;SDS011;29470;53.550;9.926;2023-04-25T23:24:57;7.68;;;1.95;;
43823;SDS011;29470;53.550;9.926;2023-04-25T23:30:00;8.52;;;2.15;;
43823;SDS011;29470;53.550;9.926;2023-04-25T23:35:04;8.57;;;2.00;;
43823;SDS011;29470;53.550;9.926;2023-04-25T23:40:08;12.13;;;1.80;;
43823;SDS011;29470;53.550;9.926;2023-04-25T23:45:12;8.23;;;1.70;;
43823;SDS011;29470;53.550;9.926;2023-04-25T23:50:18;10.73;;;1.80;;
43823;SDS011;29470;53.550;9.926;2023-04-25T23:55:21;6.13;;;1.30;;
